sensor_id;sensor_type;location;lat;lon;timestamp;P1;durP1;ratioP1;P2;durP2;ratioP2
58752;SDS011;44525;46.052;13.610;2024-03-22T00:01:11;11.98;;;7.85;;
58752;SDS011;44525;46.052;13.610;2024-03-22T00:03:36;14.27;;;8.63;;
58752;SDS011;44525;46.052;13.610;2024-03-22T00:06:02;13.63;;;8.15;;
58752;SDS011;44525;46.052;13.610;2024-03-22T00:08:27;14.43;;;8.13;;
58752;SDS011;44525;46.052;13.610;2024-03-22T00:10:53;13.88;;;8.40;;
58752;SDS011;44525;46.052;13.610;2024-03-22T00:13:18;13.05;;;8.38;;
58752;SDS011;44525;46.052;13.610;2024-03-22T00:15:43;13.70;;;7.93;;
58752;SDS011;44525;46.052;13.610;2024-03-22T00:18:10;13.82;;;7.75;;
58752;SDS011;44525;46.052;13.610;2024-03-22T00:20:35;12.18;;;8.15;;
58752;SDS011;44525;46.052;13.610;2024-03-22T00:23:01;14.00;;;8.63;;
58752;SDS011;44525;46.052;13.610;2024-03-22T00:25:27;12.00;;;7.88;;
58752;SDS011;44525;46.052;13.610;2024-03-22T00:27:52;13.85;;;8.98;;
58752;SDS011;44525;46.052;13.610;2024-03-22T00:30:18;16.23;;;8.23;;
58752;SDS011;44525;46.052;13.610;2024-03-22T00:32:44;12.57;;;8.68;;
58752;SDS011;44525;46.052;13.610;2024-03-22T00:35:09;10.70;;;7.88;;
58752;SDS011;44525;46.052;13.610;2024-03-22T00:37:35;9.55;;;6.65;;
58752;SDS011;44525;46.052;13.610;2024-03-22T00:40:01;11.32;;;6.90;;
58752;SDS011;44525;46.052;13.610;2024-03-22T00:42:26;10.13;;;6.68;;
58752;SDS011;44525;46.052;13.610;2024-03-22T00:44:52;12.30;;;7.00;;
58752;SDS011;44525;46.052;13.610;2024-03-22T00:47:17;10.95;;;6.68;;
58752;SDS011;44525;46.052;13.610;2024-03-22T00:49:43;12.52;;;6.32;;
58752;SDS011;44525;46.052;13.610;2024-03-22T00:52:08;12.80;;;7.07;;
58752;SDS011;44525;46.052;13.610;2024-03-22T00:54:34;9.73;;;6.93;;
58752;SDS011;44525;46.052;13.610;2024-03-22T00:56:59;9.77;;;6.20;;
58752;SDS011;44525;46.052;13.610;2024-03-22T00:59:24;7.80;;;5.43;;
58752;SDS011;44525;46.052;13.610;2024-03-22T01:01:50;8.75;;;5.25;;
58752;SDS011;44525;46.052;13.610;2024-03-22T01:04:15;13.18;;;5.53;;
58752;SDS011;44525;46.052;13.610;2024-03-22T01:06:40;8.45;;;5.70;;
58752;SDS011;44525;46.052;13.610;2024-03-22T01:09:06;10.60;;;6.05;;
58752;SDS011;44525;46.052;13.610;2024-03-22T01:11:32;9.07;;;6.10;;
58752;SDS011;44525;46.052;13.610;2024-03-22T01:13:57;9.93;;;5.65;;
58752;SDS011;44525;46.052;13.610;2024-03-22T01:16:23;9.07;;;5.90;;
58752;SDS011;44525;46.052;13.610;2024-03-22T01:18:48;11.50;;;6.15;;
58752;SDS011;44525;46.052;13.610;2024-03-22T01:21:14;8.00;;;5.50;;
58752;SDS011;44525;46.052;13.610;2024-03-22T01:23:39;9.25;;;5.85;;
58752;SDS011;44525;46.052;13.610;2024-03-22T01:26:05;13.10;;;6.07;;
58752;SDS011;44525;46.052;13.610;2024-03-22T01:28:30;9.10;;;5.75;;
58752;SDS011;44525;46.052;13.610;2024-03-22T01:30:55;8.98;;;6.15;;
58752;SDS011;44525;46.052;13.610;2024-03-22T01:33:21;12.27;;;6.85;;
58752;SDS011;44525;46.052;13.610;2024-03-22T01:35:46;11.60;;;7.55;;
58752;SDS011;44525;46.052;13.610;2024-03-22T01:38:11;8.70;;;5.35;;
58752;SDS011;44525;46.052;13.610;2024-03-22T01:40:37;10.63;;;6.40;;
58752;SDS011;44525;46.052;13.610;2024-03-22T01:43:02;12.05;;;6.72;;
58752;SDS011;44525;46.052;13.610;2024-03-22T01:45:30;13.40;;;6.00;;
58752;SDS011;44525;46.052;13.610;2024-03-22T01:47:57;6.40;;;4.60;;
58752;SDS011;44525;46.052;13.610;2024-03-22T01:50:22;8.73;;;5.13;;
58752;SDS011;44525;46.052;13.610;2024-03-22T01:52:48;8.10;;;5.60;;
58752;SDS011;44525;46.052;13.610;2024-03-22T01:55:14;8.60;;;5.35;;
58752;SDS011;44525;46.052;13.610;2024-03-22T01:57:39;8.60;;;5.13;;
58752;SDS011;44525;46.052;13.610;2024-03-22T02:00:05;7.38;;;4.72;;
58752;SDS011;44525;46.052;13.610;2024-03-22T02:02:33;10.27;;;4.90;;
58752;SDS011;44525;46.052;13.610;2024-03-22T02:04:59;9.00;;;5.25;;
58752;SDS011;44525;46.052;13.610;2024-03-22T02:07:24;8.68;;;5.10;;
58752;SDS011;44525;46.052;13.610;2024-03-22T02:09:54;8.10;;;5.05;;
58752;SDS011;44525;46.052;13.610;2024-03-22T02:12:20;8.65;;;5.15;;
58752;SDS011;44525;46.052;13.610;2024-03-22T02:14:45;8.00;;;4.82;;
58752;SDS011;44525;46.052;13.610;2024-03-22T02:17:10;9.27;;;4.85;;
58752;SDS011;44525;46.052;13.610;2024-03-22T02:19:36;7.63;;;5.32;;
58752;SDS011;44525;46.052;13.610;2024-03-22T02:22:01;7.30;;;4.85;;
58752;SDS011;44525;46.052;13.610;2024-03-22T02:24:27;9.20;;;4.63;;
58752;SDS011;44525;46.052;13.610;2024-03-22T02:26:52;7.85;;;5.35;;
58752;SDS011;44525;46.052;13.610;2024-03-22T02:29:17;8.93;;;4.90;;
58752;SDS011;44525;46.052;13.610;2024-03-22T02:31:43;9.07;;;5.25;;
58752;SDS011;44525;46.052;13.610;2024-03-22T02:34:08;9.30;;;5.80;;
58752;SDS011;44525;46.052;13.610;2024-03-22T02:36:33;9.63;;;5.32;;
58752;SDS011;44525;46.052;13.610;2024-03-22T02:38:59;9.30;;;5.30;;
58752;SDS011;44525;46.052;13.610;2024-03-22T02:41:24;7.65;;;4.80;;
58752;SDS011;44525;46.052;13.610;2024-03-22T02:43:49;7.65;;;5.10;;
58752;SDS011;44525;46.052;13.610;2024-03-22T02:46:15;8.40;;;5.18;;
58752;SDS011;44525;46.052;13.610;2024-03-22T02:48:40;8.98;;;5.70;;
58752;SDS011;44525;46.052;13.610;2024-03-22T02:51:05;9.15;;;6.05;;
58752;SDS011;44525;46.052;13.610;2024-03-22T02:53:31;9.30;;;5.63;;
58752;SDS011;44525;46.052;13.610;2024-03-22T02:55:56;7.85;;;4.90;;
58752;SDS011;44525;46.052;13.610;2024-03-22T02:58:25;8.10;;;4.85;;
58752;SDS011;44525;46.052;13.610;2024-03-22T03:00:50;8.32;;;4.78;;
58752;SDS011;44525;46.052;13.610;2024-03-22T03:03:15;7.88;;;4.50;;
58752;SDS011;44525;46.052;13.610;2024-03-22T03:05:41;7.63;;;4.28;;
58752;SDS011;44525;46.052;13.610;2024-03-22T03:08:07;8.13;;;4.68;;
58752;SDS011;44525;46.052;13.610;2024-03-22T03:10:32;9.00;;;4.85;;
58752;SDS011;44525;46.052;13.610;2024-03-22T03:12:58;8.00;;;4.10;;
58752;SDS011;44525;46.052;13.610;2024-03-22T03:15:23;7.10;;;4.30;;
58752;SDS011;44525;46.052;13.610;2024-03-22T03:17:48;8.10;;;4.63;;
58752;SDS011;44525;46.052;13.610;2024-03-22T03:20:14;12.57;;;4.28;;
58752;SDS011;44525;46.052;13.610;2024-03-22T03:22:40;7.45;;;4.57;;
58752;SDS011;44525;46.052;13.610;2024-03-22T03:25:06;9.65;;;4.45;;
58752;SDS011;44525;46.052;13.610;2024-03-22T03:27:32;7.30;;;4.13;;
58752;SDS011;44525;46.052;13.610;2024-03-22T03:29:57;7.25;;;4.40;;
58752;SDS011;44525;46.052;13.610;2024-03-22T03:32:23;7.45;;;4.35;;
58752;SDS011;44525;46.052;13.610;2024-03-22T03:34:49;6.63;;;4.43;;
58752;SDS011;44525;46.052;13.610;2024-03-22T03:37:15;7.43;;;4.60;;
58752;SDS011;44525;46.052;13.610;2024-03-22T03:39:40;8.35;;;5.03;;
58752;SDS011;44525;46.052;13.610;2024-03-22T03:42:06;9.13;;;4.80;;
58752;SDS011;44525;46.052;13.610;2024-03-22T03:44:31;6.97;;;4.57;;
58752;SDS011;44525;46.052;13.610;2024-03-22T03:46:56;7.22;;;4.53;;
58752;SDS011;44525;46.052;13.610;2024-03-22T03:49:22;11.82;;;5.07;;
58752;SDS011;44525;46.052;13.610;2024-03-22T03:51:47;7.72;;;4.57;;
58752;SDS011;44525;46.052;13.610;2024-03-22T03:54:13;8.27;;;4.82;;
58752;SDS011;44525;46.052;13.610;2024-03-22T03:56:38;10.18;;;4.93;;
58752;SDS011;44525;46.052;13.610;2024-03-22T03:59:03;8.73;;;5.30;;
58752;SDS011;44525;46.052;13.610;2024-03-22T04:01:29;6.55;;;4.40;;
58752;SDS011;44525;46.052;13.610;2024-03-22T04:03:54;7.63;;;4.15;;
58752;SDS011;44525;46.052;13.610;2024-03-22T04:06:19;9.13;;;4.20;;
58752;SDS011;44525;46.052;13.610;2024-03-22T04:08:45;6.97;;;4.55;;
58752;SDS011;44525;46.052;13.610;2024-03-22T04:11:10;6.72;;;3.97;;
58752;SDS011;44525;46.052;13.610;2024-03-22T04:13:36;6.15;;;4.53;;
58752;SDS011;44525;46.052;13.610;2024-03-22T04:16:02;7.13;;;4.60;;
58752;SDS011;44525;46.052;13.610;2024-03-22T04:18:27;7.63;;;4.55;;
58752;SDS011;44525;46.052;13.610;2024-03-22T04:20:53;7.40;;;5.18;;
58752;SDS011;44525;46.052;13.610;2024-03-22T04:23:19;9.27;;;6.07;;
58752;SDS011;44525;46.052;13.610;2024-03-22T04:25:54;7.97;;;5.38;;
58752;SDS011;44525;46.052;13.610;2024-03-22T04:28:21;10.40;;;4.78;;
58752;SDS011;44525;46.052;13.610;2024-03-22T04:30:56;6.75;;;4.40;;
58752;SDS011;44525;46.052;13.610;2024-03-22T04:33:26;7.85;;;4.55;;
58752;SDS011;44525;46.052;13.610;2024-03-22T04:35:55;8.43;;;4.13;;
58752;SDS011;44525;46.052;13.610;2024-03-22T04:38:21;6.72;;;4.30;;
58752;SDS011;44525;46.052;13.610;2024-03-22T04:40:47;6.20;;;4.07;;
58752;SDS011;44525;46.052;13.610;2024-03-22T04:43:13;7.70;;;4.90;;
58752;SDS011;44525;46.052;13.610;2024-03-22T04:45:41;8.63;;;4.30;;
58752;SDS011;44525;46.052;13.610;2024-03-22T04:48:07;7.95;;;4.30;;
58752;SDS011;44525;46.052;13.610;2024-03-22T04:50:33;5.90;;;3.83;;
58752;SDS011;44525;46.052;13.610;2024-03-22T04:52:58;11.40;;;4.28;;
58752;SDS011;44525;46.052;13.610;2024-03-22T04:55:24;8.98;;;4.45;;
58752;SDS011;44525;46.052;13.610;2024-03-22T04:57:49;10.32;;;4.45;;
58752;SDS011;44525;46.052;13.610;2024-03-22T05:00:14;7.93;;;4.43;;
58752;SDS011;44525;46.052;13.610;2024-03-22T05:02:40;6.97;;;4.45;;
58752;SDS011;44525;46.052;13.610;2024-03-22T05:05:06;8.18;;;4.72;;
58752;SDS011;44525;46.052;13.610;2024-03-22T05:07:33;7.72;;;4.50;;
58752;SDS011;44525;46.052;13.610;2024-03-22T05:09:58;7.45;;;4.72;;
58752;SDS011;44525;46.052;13.610;2024-03-22T05:12:24;9.57;;;4.47;;
58752;SDS011;44525;46.052;13.610;2024-03-22T05:14:49;7.05;;;4.32;;
58752;SDS011;44525;46.052;13.610;2024-03-22T05:17:15;8.07;;;4.85;;
58752;SDS011;44525;46.052;13.610;2024-03-22T05:19:40;9.35;;;4.93;;
58752;SDS011;44525;46.052;13.610;2024-03-22T05:22:05;9.80;;;5.57;;
58752;SDS011;44525;46.052;13.610;2024-03-22T05:24:31;8.50;;;5.80;;
58752;SDS011;44525;46.052;13.610;2024-03-22T05:26:57;7.90;;;5.47;;
58752;SDS011;44525;46.052;13.610;2024-03-22T05:29:23;11.65;;;5.95;;
58752;SDS011;44525;46.052;13.610;2024-03-22T05:31:49;7.68;;;4.47;;
58752;SDS011;44525;46.052;13.610;2024-03-22T05:34:16;8.13;;;4.75;;
58752;SDS011;44525;46.052;13.610;2024-03-22T05:36:43;7.63;;;4.43;;
58752;SDS011;44525;46.052;13.610;2024-03-22T05:39:09;9.95;;;4.28;;
58752;SDS011;44525;46.052;13.610;2024-03-22T05:41:37;6.03;;;4.05;;
58752;SDS011;44525;46.052;13.610;2024-03-22T05:44:03;8.45;;;4.40;;
58752;SDS011;44525;46.052;13.610;2024-03-22T05:46:29;8.88;;;4.50;;
58752;SDS011;44525;46.052;13.610;2024-03-22T05:48:55;10.07;;;5.03;;
58752;SDS011;44525;46.052;13.610;2024-03-22T05:51:22;9.15;;;5.75;;
58752;SDS011;44525;46.052;13.610;2024-03-22T05:53:47;10.13;;;6.35;;
58752;SDS011;44525;46.052;13.610;2024-03-22T05:56:12;12.65;;;6.07;;
58752;SDS011;44525;46.052;13.610;2024-03-22T05:58:38;14.63;;;6.72;;
58752;SDS011;44525;46.052;13.610;2024-03-22T06:01:03;10.30;;;6.43;;
58752;SDS011;44525;46.052;13.610;2024-03-22T06:03:29;14.73;;;6.70;;
58752;SDS011;44525;46.052;13.610;2024-03-22T06:05:55;11.70;;;6.97;;
58752;SDS011;44525;46.052;13.610;2024-03-22T06:08:24;9.18;;;5.35;;
58752;SDS011;44525;46.052;13.610;2024-03-22T06:10:50;9.43;;;5.47;;
58752;SDS011;44525;46.052;13.610;2024-03-22T06:13:15;8.07;;;5.28;;
58752;SDS011;44525;46.052;13.610;2024-03-22T06:15:42;8.18;;;5.63;;
58752;SDS011;44525;46.052;13.610;2024-03-22T06:18:11;10.13;;;6.35;;
58752;SDS011;44525;46.052;13.610;2024-03-22T06:20:37;15.27;;;9.65;;
58752;SDS011;44525;46.052;13.610;2024-03-22T06:23:02;12.02;;;7.07;;
58752;SDS011;44525;46.052;13.610;2024-03-22T06:25:28;9.45;;;6.25;;
58752;SDS011;44525;46.052;13.610;2024-03-22T06:27:54;8.10;;;5.68;;
58752;SDS011;44525;46.052;13.610;2024-03-22T06:30:19;9.50;;;6.32;;
58752;SDS011;44525;46.052;13.610;2024-03-22T06:32:45;11.77;;;6.60;;
58752;SDS011;44525;46.052;13.610;2024-03-22T06:35:10;9.55;;;5.10;;
58752;SDS011;44525;46.052;13.610;2024-03-22T06:37:36;7.07;;;4.80;;
58752;SDS011;44525;46.052;13.610;2024-03-22T06:40:02;7.72;;;5.18;;
58752;SDS011;44525;46.052;13.610;2024-03-22T06:42:30;6.93;;;5.28;;
58752;SDS011;44525;46.052;13.610;2024-03-22T06:44:55;9.30;;;5.82;;
58752;SDS011;44525;46.052;13.610;2024-03-22T06:47:20;9.43;;;5.47;;
58752;SDS011;44525;46.052;13.610;2024-03-22T06:49:46;8.63;;;5.68;;
58752;SDS011;44525;46.052;13.610;2024-03-22T06:52:12;7.63;;;5.25;;
58752;SDS011;44525;46.052;13.610;2024-03-22T06:54:37;7.68;;;5.05;;
58752;SDS011;44525;46.052;13.610;2024-03-22T06:57:03;7.63;;;5.15;;
58752;SDS011;44525;46.052;13.610;2024-03-22T06:59:28;9.15;;;4.97;;
58752;SDS011;44525;46.052;13.610;2024-03-22T07:01:53;7.70;;;5.13;;
58752;SDS011;44525;46.052;13.610;2024-03-22T07:04:19;8.90;;;4.95;;
58752;SDS011;44525;46.052;13.610;2024-03-22T07:06:45;9.05;;;5.20;;
58752;SDS011;44525;46.052;13.610;2024-03-22T07:09:10;9.35;;;5.47;;
58752;SDS011;44525;46.052;13.610;2024-03-22T07:11:36;10.68;;;5.70;;
58752;SDS011;44525;46.052;13.610;2024-03-22T07:14:02;9.57;;;5.50;;
58752;SDS011;44525;46.052;13.610;2024-03-22T07:16:27;11.73;;;6.43;;
58752;SDS011;44525;46.052;13.610;2024-03-22T07:18:52;8.38;;;5.50;;
58752;SDS011;44525;46.052;13.610;2024-03-22T07:21:18;9.90;;;5.15;;
58752;SDS011;44525;46.052;13.610;2024-03-22T07:23:43;12.77;;;5.63;;
58752;SDS011;44525;46.052;13.610;2024-03-22T07:26:08;8.73;;;5.20;;
58752;SDS011;44525;46.052;13.610;2024-03-22T07:28:34;8.93;;;5.32;;
58752;SDS011;44525;46.052;13.610;2024-03-22T07:30:59;9.02;;;5.32;;
58752;SDS011;44525;46.052;13.610;2024-03-22T07:33:25;9.13;;;4.90;;
58752;SDS011;44525;46.052;13.610;2024-03-22T07:35:50;7.10;;;4.47;;
58752;SDS011;44525;46.052;13.610;2024-03-22T07:38:16;7.20;;;4.32;;
58752;SDS011;44525;46.052;13.610;2024-03-22T07:40:42;9.68;;;4.82;;
58752;SDS011;44525;46.052;13.610;2024-03-22T07:43:07;8.30;;;4.30;;
58752;SDS011;44525;46.052;13.610;2024-03-22T07:45:34;10.52;;;4.75;;
58752;SDS011;44525;46.052;13.610;2024-03-22T07:47:59;10.27;;;4.55;;
58752;SDS011;44525;46.052;13.610;2024-03-22T07:50:25;9.07;;;4.82;;
58752;SDS011;44525;46.052;13.610;2024-03-22T07:52:50;8.82;;;4.57;;
58752;SDS011;44525;46.052;13.610;2024-03-22T07:55:16;8.25;;;3.83;;
58752;SDS011;44525;46.052;13.610;2024-03-22T07:57:42;8.40;;;3.70;;
58752;SDS011;44525;46.052;13.610;2024-03-22T08:00:07;8.95;;;4.22;;
58752;SDS011;44525;46.052;13.610;2024-03-22T08:02:33;7.10;;;4.45;;
58752;SDS011;44525;46.052;13.610;2024-03-22T08:04:58;7.97;;;4.10;;
58752;SDS011;44525;46.052;13.610;2024-03-22T08:07:24;6.43;;;4.38;;
58752;SDS011;44525;46.052;13.610;2024-03-22T08:09:49;7.28;;;4.30;;
58752;SDS011;44525;46.052;13.610;2024-03-22T08:12:14;7.57;;;4.00;;
58752;SDS011;44525;46.052;13.610;2024-03-22T08:14:40;7.03;;;4.30;;
58752;SDS011;44525;46.052;13.610;2024-03-22T08:17:06;6.15;;;4.20;;
58752;SDS011;44525;46.052;13.610;2024-03-22T08:19:34;7.38;;;4.18;;
58752;SDS011;44525;46.052;13.610;2024-03-22T08:22:00;6.50;;;3.58;;
58752;SDS011;44525;46.052;13.610;2024-03-22T08:24:25;7.53;;;3.55;;
58752;SDS011;44525;46.052;13.610;2024-03-22T08:26:50;6.85;;;4.32;;
58752;SDS011;44525;46.052;13.610;2024-03-22T08:29:16;10.00;;;3.78;;
58752;SDS011;44525;46.052;13.610;2024-03-22T08:31:41;7.35;;;4.10;;
58752;SDS011;44525;46.052;13.610;2024-03-22T08:34:07;5.85;;;3.70;;
58752;SDS011;44525;46.052;13.610;2024-03-22T08:36:33;5.90;;;4.00;;
58752;SDS011;44525;46.052;13.610;2024-03-22T08:38:59;6.55;;;3.88;;
58752;SDS011;44525;46.052;13.610;2024-03-22T08:41:25;5.95;;;3.35;;
58752;SDS011;44525;46.052;13.610;2024-03-22T08:43:50;6.60;;;3.60;;
58752;SDS011;44525;46.052;13.610;2024-03-22T08:46:15;6.72;;;4.32;;
58752;SDS011;44525;46.052;13.610;2024-03-22T08:48:41;6.53;;;4.00;;
58752;SDS011;44525;46.052;13.610;2024-03-22T08:51:06;6.55;;;3.90;;
58752;SDS011;44525;46.052;13.610;2024-03-22T08:53:31;7.03;;;3.78;;
58752;SDS011;44525;46.052;13.610;2024-03-22T08:55:57;5.93;;;3.88;;
58752;SDS011;44525;46.052;13.610;2024-03-22T08:58:23;8.57;;;4.07;;
58752;SDS011;44525;46.052;13.610;2024-03-22T09:00:48;5.88;;;3.70;;
58752;SDS011;44525;46.052;13.610;2024-03-22T09:03:14;6.63;;;3.50;;
58752;SDS011;44525;46.052;13.610;2024-03-22T09:05:40;7.60;;;3.90;;
58752;SDS011;44525;46.052;13.610;2024-03-22T09:08:06;6.82;;;4.05;;
58752;SDS011;44525;46.052;13.610;2024-03-22T09:10:31;6.65;;;3.72;;
58752;SDS011;44525;46.052;13.610;2024-03-22T09:12:57;4.53;;;3.30;;
58752;SDS011;44525;46.052;13.610;2024-03-22T09:15:22;7.35;;;3.88;;
58752;SDS011;44525;46.052;13.610;2024-03-22T09:17:48;6.97;;;4.15;;
58752;SDS011;44525;46.052;13.610;2024-03-22T09:20:14;6.90;;;3.88;;
58752;SDS011;44525;46.052;13.610;2024-03-22T09:22:39;6.63;;;3.70;;
58752;SDS011;44525;46.052;13.610;2024-03-22T09:25:05;5.40;;;3.40;;
58752;SDS011;44525;46.052;13.610;2024-03-22T09:27:31;6.63;;;4.00;;
58752;SDS011;44525;46.052;13.610;2024-03-22T09:29:57;6.47;;;3.53;;
58752;SDS011;44525;46.052;13.610;2024-03-22T09:32:23;6.45;;;3.50;;
58752;SDS011;44525;46.052;13.610;2024-03-22T09:34:48;6.22;;;3.78;;
58752;SDS011;44525;46.052;13.610;2024-03-22T09:37:15;7.95;;;4.00;;
58752;SDS011;44525;46.052;13.610;2024-03-22T09:39:40;9.57;;;4.20;;
58752;SDS011;44525;46.052;13.610;2024-03-22T09:42:06;4.85;;;3.15;;
58752;SDS011;44525;46.052;13.610;2024-03-22T09:44:32;5.60;;;3.50;;
58752;SDS011;44525;46.052;13.610;2024-03-22T09:46:58;5.03;;;3.10;;
58752;SDS011;44525;46.052;13.610;2024-03-22T09:49:24;5.88;;;3.50;;
58752;SDS011;44525;46.052;13.610;2024-03-22T09:51:50;6.13;;;3.80;;
58752;SDS011;44525;46.052;13.610;2024-03-22T09:54:17;4.95;;;3.35;;
58752;SDS011;44525;46.052;13.610;2024-03-22T09:56:42;5.40;;;3.13;;
58752;SDS011;44525;46.052;13.610;2024-03-22T09:59:09;7.00;;;3.30;;
58752;SDS011;44525;46.052;13.610;2024-03-22T10:01:37;5.15;;;3.05;;
58752;SDS011;44525;46.052;13.610;2024-03-22T10:04:05;4.30;;;3.05;;
58752;SDS011;44525;46.052;13.610;2024-03-22T10:06:30;5.75;;;3.10;;
58752;SDS011;44525;46.052;13.610;2024-03-22T10:08:59;6.75;;;3.50;;
58752;SDS011;44525;46.052;13.610;2024-03-22T10:11:28;5.25;;;2.88;;
58752;SDS011;44525;46.052;13.610;2024-03-22T10:13:53;5.43;;;2.78;;
58752;SDS011;44525;46.052;13.610;2024-03-22T10:16:20;5.70;;;3.15;;
58752;SDS011;44525;46.052;13.610;2024-03-22T10:18:46;5.53;;;3.63;;
58752;SDS011;44525;46.052;13.610;2024-03-22T10:21:16;6.03;;;3.30;;
58752;SDS011;44525;46.052;13.610;2024-03-22T10:23:43;3.47;;;2.58;;
58752;SDS011;44525;46.052;13.610;2024-03-22T10:26:09;4.10;;;2.72;;
58752;SDS011;44525;46.052;13.610;2024-03-22T10:28:35;4.30;;;2.90;;
58752;SDS011;44525;46.052;13.610;2024-03-22T10:31:00;4.72;;;2.97;;
58752;SDS011;44525;46.052;13.610;2024-03-22T10:33:27;4.03;;;2.72;;
58752;SDS011;44525;46.052;13.610;2024-03-22T10:35:53;3.72;;;2.75;;
58752;SDS011;44525;46.052;13.610;2024-03-22T10:38:19;4.43;;;2.80;;
58752;SDS011;44525;46.052;13.610;2024-03-22T10:40:46;4.10;;;2.70;;
58752;SDS011;44525;46.052;13.610;2024-03-22T10:43:15;5.57;;;2.90;;
58752;SDS011;44525;46.052;13.610;2024-03-22T10:45:41;5.22;;;2.83;;
58752;SDS011;44525;46.052;13.610;2024-03-22T10:48:09;3.70;;;2.65;;
58752;SDS011;44525;46.052;13.610;2024-03-22T10:50:39;5.03;;;2.97;;
58752;SDS011;44525;46.052;13.610;2024-03-22T10:53:09;4.93;;;2.85;;
58752;SDS011;44525;46.052;13.610;2024-03-22T10:55:44;4.00;;;2.70;;
58752;SDS011;44525;46.052;13.610;2024-03-22T10:58:17;3.90;;;2.63;;
58752;SDS011;44525;46.052;13.610;2024-03-22T11:00:45;4.68;;;2.75;;
58752;SDS011;44525;46.052;13.610;2024-03-22T11:03:12;6.45;;;2.90;;
58752;SDS011;44525;46.052;13.610;2024-03-22T11:05:48;6.53;;;2.88;;
58752;SDS011;44525;46.052;13.610;2024-03-22T11:08:24;4.30;;;2.85;;
58752;SDS011;44525;46.052;13.610;2024-03-22T11:10:55;5.50;;;2.90;;
58752;SDS011;44525;46.052;13.610;2024-03-22T11:13:21;4.85;;;2.83;;
58752;SDS011;44525;46.052;13.610;2024-03-22T11:15:48;3.70;;;2.70;;
58752;SDS011;44525;46.052;13.610;2024-03-22T11:18:14;3.80;;;2.63;;
58752;SDS011;44525;46.052;13.610;2024-03-22T11:20:40;5.50;;;2.97;;
58752;SDS011;44525;46.052;13.610;2024-03-22T11:23:07;4.80;;;3.00;;
58752;SDS011;44525;46.052;13.610;2024-03-22T11:25:32;4.43;;;2.90;;
58752;SDS011;44525;46.052;13.610;2024-03-22T11:27:58;4.28;;;3.00;;
58752;SDS011;44525;46.052;13.610;2024-03-22T11:30:26;4.90;;;2.72;;
58752;SDS011;44525;46.052;13.610;2024-03-22T11:32:53;6.28;;;3.28;;
58752;SDS011;44525;46.052;13.610;2024-03-22T11:35:19;5.22;;;3.00;;
58752;SDS011;44525;46.052;13.610;2024-03-22T11:37:44;4.47;;;2.72;;
58752;SDS011;44525;46.052;13.610;2024-03-22T11:40:10;4.05;;;2.80;;
58752;SDS011;44525;46.052;13.610;2024-03-22T11:42:37;7.78;;;3.13;;
58752;SDS011;44525;46.052;13.610;2024-03-22T11:45:05;7.40;;;3.20;;
58752;SDS011;44525;46.052;13.610;2024-03-22T11:47:33;5.35;;;2.90;;
58752;SDS011;44525;46.052;13.610;2024-03-22T11:49:59;4.55;;;2.70;;
58752;SDS011;44525;46.052;13.610;2024-03-22T11:52:25;4.85;;;2.70;;
58752;SDS011;44525;46.052;13.610;2024-03-22T11:54:51;4.07;;;2.80;;
58752;SDS011;44525;46.052;13.610;2024-03-22T11:57:23;4.85;;;3.10;;
58752;SDS011;44525;46.052;13.610;2024-03-22T11:59:50;6.07;;;2.80;;
58752;SDS011;44525;46.052;13.610;2024-03-22T12:02:16;4.15;;;2.72;;
58752;SDS011;44525;46.052;13.610;2024-03-22T12:04:45;4.63;;;3.05;;
58752;SDS011;44525;46.052;13.610;2024-03-22T12:07:15;4.28;;;2.83;;
58752;SDS011;44525;46.052;13.610;2024-03-22T12:09:42;5.15;;;2.88;;
58752;SDS011;44525;46.052;13.610;2024-03-22T12:12:08;3.92;;;2.70;;
58752;SDS011;44525;46.052;13.610;2024-03-22T12:14:35;4.70;;;2.83;;
58752;SDS011;44525;46.052;13.610;2024-03-22T12:17:04;4.38;;;3.03;;
58752;SDS011;44525;46.052;13.610;2024-03-22T12:19:30;7.32;;;3.00;;
58752;SDS011;44525;46.052;13.610;2024-03-22T12:21:56;4.18;;;2.90;;
58752;SDS011;44525;46.052;13.610;2024-03-22T12:24:22;4.43;;;3.20;;
58752;SDS011;44525;46.052;13.610;2024-03-22T12:26:48;7.53;;;3.05;;
58752;SDS011;44525;46.052;13.610;2024-03-22T12:29:15;5.75;;;3.33;;
58752;SDS011;44525;46.052;13.610;2024-03-22T12:31:40;4.10;;;2.80;;
58752;SDS011;44525;46.052;13.610;2024-03-22T12:34:06;4.45;;;2.90;;
58752;SDS011;44525;46.052;13.610;2024-03-22T12:36:32;5.15;;;3.22;;
58752;SDS011;44525;46.052;13.610;2024-03-22T12:38:57;4.78;;;2.80;;
58752;SDS011;44525;46.052;13.610;2024-03-22T12:41:22;5.72;;;3.20;;
58752;SDS011;44525;46.052;13.610;2024-03-22T12:43:48;9.02;;;2.85;;
58752;SDS011;44525;46.052;13.610;2024-03-22T12:46:13;5.82;;;2.90;;
58752;SDS011;44525;46.052;13.610;2024-03-22T12:48:39;3.90;;;2.80;;
58752;SDS011;44525;46.052;13.610;2024-03-22T12:51:04;4.20;;;2.92;;
58752;SDS011;44525;46.052;13.610;2024-03-22T12:53:31;4.82;;;2.90;;
58752;SDS011;44525;46.052;13.610;2024-03-22T12:55:56;5.00;;;3.10;;
58752;SDS011;44525;46.052;13.610;2024-03-22T12:58:22;4.40;;;2.88;;
58752;SDS011;44525;46.052;13.610;2024-03-22T13:00:47;6.50;;;2.90;;
58752;SDS011;44525;46.052;13.610;2024-03-22T13:03:12;4.80;;;3.00;;
58752;SDS011;44525;46.052;13.610;2024-03-22T13:05:40;4.75;;;2.80;;
58752;SDS011;44525;46.052;13.610;2024-03-22T13:08:05;5.60;;;3.50;;
58752;SDS011;44525;46.052;13.610;2024-03-22T13:10:31;5.28;;;3.78;;
58752;SDS011;44525;46.052;13.610;2024-03-22T13:12:56;7.43;;;3.40;;
58752;SDS011;44525;46.052;13.610;2024-03-22T13:15:22;5.95;;;3.63;;
58752;SDS011;44525;46.052;13.610;2024-03-22T13:17:48;4.75;;;3.10;;
58752;SDS011;44525;46.052;13.610;2024-03-22T13:20:13;5.07;;;3.55;;
58752;SDS011;44525;46.052;13.610;2024-03-22T13:22:40;6.93;;;3.83;;
58752;SDS011;44525;46.052;13.610;2024-03-22T13:25:06;6.47;;;3.60;;
58752;SDS011;44525;46.052;13.610;2024-03-22T13:27:33;5.47;;;3.65;;
58752;SDS011;44525;46.052;13.610;2024-03-22T13:29:59;5.68;;;3.30;;
58752;SDS011;44525;46.052;13.610;2024-03-22T13:32:25;4.55;;;3.30;;
58752;SDS011;44525;46.052;13.610;2024-03-22T13:34:50;5.60;;;3.70;;
58752;SDS011;44525;46.052;13.610;2024-03-22T13:37:16;7.68;;;3.60;;
58752;SDS011;44525;46.052;13.610;2024-03-22T13:39:41;5.25;;;3.78;;
58752;SDS011;44525;46.052;13.610;2024-03-22T13:42:07;4.90;;;3.42;;
58752;SDS011;44525;46.052;13.610;2024-03-22T13:44:32;5.32;;;3.55;;
58752;SDS011;44525;46.052;13.610;2024-03-22T13:46:59;5.35;;;3.22;;
58752;SDS011;44525;46.052;13.610;2024-03-22T13:49:24;5.30;;;3.40;;
58752;SDS011;44525;46.052;13.610;2024-03-22T13:51:50;5.35;;;3.72;;
58752;SDS011;44525;46.052;13.610;2024-03-22T13:54:15;6.57;;;3.78;;
58752;SDS011;44525;46.052;13.610;2024-03-22T13:56:41;7.05;;;3.50;;
58752;SDS011;44525;46.052;13.610;2024-03-22T13:59:07;5.35;;;3.47;;
58752;SDS011;44525;46.052;13.610;2024-03-22T14:01:36;5.97;;;3.47;;
58752;SDS011;44525;46.052;13.610;2024-03-22T14:04:05;5.72;;;3.92;;
58752;SDS011;44525;46.052;13.610;2024-03-22T14:06:31;5.68;;;4.03;;
58752;SDS011;44525;46.052;13.610;2024-03-22T14:08:57;5.03;;;3.30;;
58752;SDS011;44525;46.052;13.610;2024-03-22T14:11:29;6.38;;;3.75;;
58752;SDS011;44525;46.052;13.610;2024-03-22T14:13:55;6.20;;;3.60;;
58752;SDS011;44525;46.052;13.610;2024-03-22T14:16:24;5.72;;;3.63;;
58752;SDS011;44525;46.052;13.610;2024-03-22T14:18:49;7.35;;;3.70;;
58752;SDS011;44525;46.052;13.610;2024-03-22T14:21:15;6.00;;;3.63;;
58752;SDS011;44525;46.052;13.610;2024-03-22T14:23:48;8.05;;;3.78;;
58752;SDS011;44525;46.052;13.610;2024-03-22T14:26:14;6.93;;;3.65;;